CSN6291 ZHHH-ZUCK
Flight info
| Callsign | CSN6291 |
|---|---|
| Flight time | 1h 21m |
| Altitude | 23600 |
| Route | GUGAM1S GUGAM W156 UPGUR W80 OPAMU OPAMU8K |
| Aircraft | B738/M-SDE2E3FGHIRWXY/LB1 |
Departure
| Time | 2026-04-23 05:51 |
|---|---|
| Airport | Wuhan Tianhe International Airport (ZHHH) |
Arrival
| Time | 2026-04-23 07:12 |
|---|---|
| Airport | Chongqing Jiangbei International Airport (ZUCK) |
| Time | Latitude | Longitude | Altitude | Speed | Heading |
|---|---|---|---|---|---|
| 2026-04-23 05:14 | 30.77261 | 114.21729 | 107 ft | 0 kts | 40° |
| 2026-04-23 05:38 | 30.77244 | 114.21712 | 107 ft | 4 kts | 40° |
| 2026-04-23 05:38 | 30.77228 | 114.21695 | 107 ft | 4 kts | 48° |
| 2026-04-23 05:38 | 30.77214 | 114.21670 | 107 ft | 4 kts | 69° |
| 2026-04-23 05:38 | 30.77210 | 114.21660 | 105 ft | 0 kts | 71° |
| 2026-04-23 05:41 | 30.77211 | 114.21661 | 105 ft | 1 kts | 71° |
| 2026-04-23 05:41 | 30.77214 | 114.21675 | 107 ft | 2 kts | 78° |
| 2026-04-23 05:41 | 30.77204 | 114.21701 | 107 ft | 5 kts | 125° |
| 2026-04-23 05:41 | 30.77166 | 114.21754 | 107 ft | 12 kts | 131° |
| 2026-04-23 05:42 | 30.77099 | 114.21842 | 106 ft | 15 kts | 131° |
| 2026-04-23 05:42 | 30.77036 | 114.21924 | 105 ft | 10 kts | 139° |
| 2026-04-23 05:42 | 30.76989 | 114.21930 | 105 ft | 6 kts | 206° |
| 2026-04-23 05:42 | 30.76958 | 114.21899 | 107 ft | 6 kts | 222° |
| 2026-04-23 05:43 | 30.76924 | 114.21863 | 107 ft | 8 kts | 222° |
| 2026-04-23 05:43 | 30.76876 | 114.21814 | 107 ft | 11 kts | 221° |
| 2026-04-23 05:43 | 30.76802 | 114.21739 | 107 ft | 18 kts | 221° |
| 2026-04-23 05:43 | 30.76710 | 114.21645 | 107 ft | 17 kts | 221° |
| 2026-04-23 05:44 | 30.76621 | 114.21554 | 106 ft | 17 kts | 221° |
| 2026-04-23 05:44 | 30.76536 | 114.21465 | 106 ft | 16 kts | 221° |
| 2026-04-23 05:44 | 30.76453 | 114.21381 | 106 ft | 15 kts | 221° |
| 2026-04-23 05:44 | 30.76367 | 114.21292 | 106 ft | 18 kts | 221° |
| 2026-04-23 05:45 | 30.76258 | 114.21181 | 107 ft | 23 kts | 221° |
| 2026-04-23 05:45 | 30.76143 | 114.21063 | 107 ft | 17 kts | 221° |
| 2026-04-23 05:45 | 30.76106 | 114.20997 | 107 ft | 7 kts | 271° |
| 2026-04-23 05:45 | 30.76114 | 114.20981 | 107 ft | 3 kts | 314° |
| 2026-04-23 05:46 | 30.76149 | 114.20941 | 107 ft | 9 kts | 313° |
| 2026-04-23 05:46 | 30.76192 | 114.20885 | 105 ft | 10 kts | 312° |
| 2026-04-23 05:46 | 30.76245 | 114.20816 | 106 ft | 14 kts | 311° |
| 2026-04-23 05:46 | 30.76318 | 114.20719 | 104 ft | 18 kts | 312° |
| 2026-04-23 05:47 | 30.76411 | 114.20599 | 105 ft | 22 kts | 312° |
| 2026-04-23 05:47 | 30.76522 | 114.20451 | 104 ft | 26 kts | 310° |
| 2026-04-23 05:47 | 30.76645 | 114.20290 | 105 ft | 23 kts | 311° |
| 2026-04-23 05:47 | 30.76743 | 114.20162 | 104 ft | 21 kts | 311° |
| 2026-04-23 05:48 | 30.76837 | 114.20038 | 104 ft | 20 kts | 311° |
| 2026-04-23 05:48 | 30.76928 | 114.19918 | 104 ft | 20 kts | 311° |
| 2026-04-23 05:48 | 30.77019 | 114.19852 | 104 ft | 10 kts | 360° |
| 2026-04-23 05:48 | 30.77082 | 114.19839 | 104 ft | 8 kts | 326° |
| 2026-04-23 05:49 | 30.77118 | 114.19791 | 104 ft | 8 kts | 310° |
| 2026-04-23 05:49 | 30.77159 | 114.19738 | 103 ft | 9 kts | 311° |
| 2026-04-23 05:49 | 30.77207 | 114.19675 | 104 ft | 11 kts | 313° |
| 2026-04-23 05:49 | 30.77242 | 114.19664 | 104 ft | 4 kts | 22° |
| 2026-04-23 05:50 | 30.77267 | 114.19687 | 104 ft | 5 kts | 40° |
| 2026-04-23 05:50 | 30.77297 | 114.19717 | 104 ft | 6 kts | 41° |
| 2026-04-23 05:50 | 30.77356 | 114.19778 | 104 ft | 20 kts | 41° |
| 2026-04-23 05:50 | 30.77632 | 114.20059 | 105 ft | 90 kts | 41° |
| 2026-04-23 05:51 | 30.78269 | 114.20707 | 112 ft | 151 kts | 40° |
| 2026-04-23 05:51 | 30.79111 | 114.21582 | 656 ft | 159 kts | 41° |
| 2026-04-23 05:51 | 30.79968 | 114.22315 | 1659 ft | 154 kts | 26° |
| 2026-04-23 05:51 | 30.80974 | 114.22873 | 2227 ft | 173 kts | 26° |
| 2026-04-23 05:52 | 30.82157 | 114.23549 | 2515 ft | 203 kts | 25° |
| 2026-04-23 05:52 | 30.83509 | 114.24322 | 2869 ft | 225 kts | 25° |
| 2026-04-23 05:52 | 30.84993 | 114.25157 | 3218 ft | 248 kts | 21° |
| 2026-04-23 05:52 | 30.86711 | 114.25442 | 3958 ft | 254 kts | 352° |
| 2026-04-23 05:53 | 30.88324 | 114.24630 | 4862 ft | 258 kts | 323° |
| 2026-04-23 05:53 | 30.89616 | 114.23148 | 5695 ft | 262 kts | 313° |
| 2026-04-23 05:53 | 30.90797 | 114.21542 | 6542 ft | 266 kts | 312° |
| 2026-04-23 05:53 | 30.92008 | 114.19890 | 7308 ft | 270 kts | 312° |
| 2026-04-23 05:54 | 30.93253 | 114.18222 | 8103 ft | 274 kts | 313° |
| 2026-04-23 05:54 | 30.94522 | 114.16541 | 8874 ft | 279 kts | 313° |
| 2026-04-23 05:54 | 30.95677 | 114.14709 | 9691 ft | 285 kts | 296° |
| 2026-04-23 05:54 | 30.96096 | 114.12434 | 10382 ft | 296 kts | 271° |
| 2026-04-23 05:55 | 30.95592 | 114.10017 | 10578 ft | 325 kts | 243° |
| 2026-04-23 05:55 | 30.94080 | 114.07932 | 10782 ft | 350 kts | 224° |
| 2026-04-23 05:55 | 30.92207 | 114.06027 | 11173 ft | 364 kts | 221° |
| 2026-04-23 05:55 | 30.90248 | 114.04121 | 11840 ft | 368 kts | 221° |
| 2026-04-23 05:56 | 30.88285 | 114.02206 | 12640 ft | 368 kts | 222° |
| 2026-04-23 05:56 | 30.86327 | 114.00270 | 13427 ft | 370 kts | 223° |
| 2026-04-23 05:56 | 30.84374 | 113.98312 | 14133 ft | 373 kts | 224° |
| 2026-04-23 05:56 | 30.82411 | 113.96326 | 14859 ft | 374 kts | 224° |
| 2026-04-23 05:57 | 30.80449 | 113.94333 | 15630 ft | 375 kts | 224° |
| 2026-04-23 05:57 | 30.78485 | 113.92335 | 16402 ft | 376 kts | 224° |
| 2026-04-23 05:57 | 30.77185 | 113.91011 | 16903 ft | 377 kts | 224° |
| 2026-04-23 05:57 | 30.75207 | 113.88998 | 17641 ft | 378 kts | 224° |
| 2026-04-23 05:58 | 30.73222 | 113.86980 | 18350 ft | 380 kts | 224° |
| 2026-04-23 05:58 | 30.71225 | 113.84952 | 18947 ft | 382 kts | 224° |
| 2026-04-23 05:58 | 30.69231 | 113.82900 | 19563 ft | 383 kts | 227° |
| 2026-04-23 05:58 | 30.67430 | 113.80627 | 20177 ft | 382 kts | 232° |
| 2026-04-23 05:59 | 30.65704 | 113.78269 | 20790 ft | 384 kts | 233° |
| 2026-04-23 05:59 | 30.63980 | 113.75895 | 21403 ft | 385 kts | 233° |
| 2026-04-23 05:59 | 30.62257 | 113.73525 | 22141 ft | 382 kts | 233° |
| 2026-04-23 05:59 | 30.60552 | 113.71191 | 22986 ft | 377 kts | 233° |
| 2026-04-23 06:00 | 30.58851 | 113.68870 | 23448 ft | 376 kts | 233° |
| 2026-04-23 06:00 | 30.57158 | 113.66566 | 23590 ft | 376 kts | 233° |
| 2026-04-23 06:00 | 30.55462 | 113.64261 | 23595 ft | 374 kts | 233° |
| 2026-04-23 06:00 | 30.53772 | 113.61969 | 23600 ft | 374 kts | 233° |
| 2026-04-23 06:01 | 30.52083 | 113.59680 | 23614 ft | 374 kts | 233° |
| 2026-04-23 06:01 | 30.50392 | 113.57389 | 23600 ft | 374 kts | 233° |
| 2026-04-23 06:01 | 30.48702 | 113.55103 | 23622 ft | 374 kts | 233° |
| 2026-04-23 06:01 | 30.47010 | 113.52813 | 23602 ft | 374 kts | 233° |
| 2026-04-23 06:02 | 30.45316 | 113.50523 | 23616 ft | 374 kts | 233° |
| 2026-04-23 06:02 | 30.43621 | 113.48234 | 23608 ft | 374 kts | 233° |
| 2026-04-23 06:02 | 30.41924 | 113.45943 | 23601 ft | 374 kts | 233° |
| 2026-04-23 06:02 | 30.40237 | 113.43667 | 23606 ft | 374 kts | 233° |
| 2026-04-23 06:03 | 30.38532 | 113.41367 | 23598 ft | 374 kts | 233° |
| 2026-04-23 06:03 | 30.36834 | 113.39078 | 23606 ft | 374 kts | 233° |
| 2026-04-23 06:03 | 30.35138 | 113.36793 | 23606 ft | 374 kts | 233° |
| 2026-04-23 06:03 | 30.33439 | 113.34506 | 23600 ft | 374 kts | 234° |
| 2026-04-23 06:04 | 30.31740 | 113.32220 | 23599 ft | 374 kts | 233° |
| 2026-04-23 06:04 | 30.30045 | 113.29941 | 23608 ft | 374 kts | 234° |
| 2026-04-23 06:04 | 30.28348 | 113.27659 | 23612 ft | 374 kts | 233° |
| 2026-04-23 06:04 | 30.26649 | 113.25376 | 23595 ft | 374 kts | 233° |
| 2026-04-23 06:05 | 30.24954 | 113.23100 | 23593 ft | 374 kts | 233° |
| 2026-04-23 06:05 | 30.23384 | 113.20728 | 23578 ft | 369 kts | 244° |
| 2026-04-23 06:05 | 30.22411 | 113.18050 | 23605 ft | 365 kts | 255° |
| 2026-04-23 06:05 | 30.21889 | 113.15194 | 23589 ft | 363 kts | 265° |
| 2026-04-23 06:06 | 30.21924 | 113.12280 | 23606 ft | 363 kts | 273° |
| 2026-04-23 06:06 | 30.22122 | 113.09364 | 23599 ft | 364 kts | 274° |
| 2026-04-23 06:06 | 30.22338 | 113.06442 | 23593 ft | 365 kts | 274° |
| 2026-04-23 06:06 | 30.22554 | 113.03511 | 23595 ft | 366 kts | 274° |
| 2026-04-23 06:07 | 30.22762 | 113.00579 | 23596 ft | 366 kts | 274° |
| 2026-04-23 06:07 | 30.22964 | 112.97645 | 23590 ft | 367 kts | 274° |
| 2026-04-23 06:07 | 30.23161 | 112.94705 | 23603 ft | 367 kts | 274° |
| 2026-04-23 06:07 | 30.23354 | 112.91758 | 23597 ft | 367 kts | 274° |
| 2026-04-23 06:08 | 30.23545 | 112.88815 | 23591 ft | 367 kts | 274° |
| 2026-04-23 06:08 | 30.23734 | 112.85874 | 23587 ft | 367 kts | 274° |
| 2026-04-23 06:08 | 30.23922 | 112.82932 | 23588 ft | 367 kts | 274° |
| 2026-04-23 06:08 | 30.24109 | 112.79988 | 23590 ft | 366 kts | 274° |
| 2026-04-23 06:09 | 30.24296 | 112.77049 | 23588 ft | 366 kts | 274° |
| 2026-04-23 06:09 | 30.24481 | 112.74114 | 23590 ft | 366 kts | 274° |
| 2026-04-23 06:09 | 30.24667 | 112.71174 | 23586 ft | 366 kts | 274° |
| 2026-04-23 06:09 | 30.24851 | 112.68240 | 23585 ft | 366 kts | 274° |
| 2026-04-23 06:10 | 30.25034 | 112.65308 | 23589 ft | 366 kts | 274° |
| 2026-04-23 06:10 | 30.25218 | 112.62372 | 23592 ft | 366 kts | 274° |
| 2026-04-23 06:10 | 30.25400 | 112.59438 | 23587 ft | 366 kts | 274° |
| 2026-04-23 06:10 | 30.25582 | 112.56505 | 23593 ft | 366 kts | 274° |
| 2026-04-23 06:11 | 30.25763 | 112.53574 | 23588 ft | 366 kts | 274° |
| 2026-04-23 06:11 | 30.25941 | 112.50683 | 23601 ft | 366 kts | 274° |
| 2026-04-23 06:11 | 30.26121 | 112.47737 | 23586 ft | 366 kts | 274° |
| 2026-04-23 06:11 | 30.26427 | 112.44822 | 23582 ft | 366 kts | 280° |
| 2026-04-23 06:12 | 30.27092 | 112.41976 | 23584 ft | 367 kts | 287° |
| 2026-04-23 06:12 | 30.27937 | 112.39185 | 23585 ft | 367 kts | 288° |
| 2026-04-23 06:12 | 30.29646 | 112.33609 | 23591 ft | 367 kts | 288° |
| 2026-04-23 06:13 | 30.30495 | 112.30822 | 23596 ft | 367 kts | 287° |
| 2026-04-23 06:13 | 30.31340 | 112.28032 | 23595 ft | 367 kts | 287° |
| 2026-04-23 06:13 | 30.32182 | 112.25238 | 23587 ft | 367 kts | 287° |
| 2026-04-23 06:13 | 30.33022 | 112.22442 | 23581 ft | 367 kts | 287° |
| 2026-04-23 06:14 | 30.33859 | 112.19652 | 23602 ft | 367 kts | 287° |
| 2026-04-23 06:14 | 30.34695 | 112.16859 | 23579 ft | 367 kts | 287° |
| 2026-04-23 06:14 | 30.35530 | 112.14066 | 23590 ft | 367 kts | 287° |
| 2026-04-23 06:14 | 30.36364 | 112.11273 | 23580 ft | 367 kts | 287° |
| 2026-04-23 06:15 | 30.37197 | 112.08481 | 23582 ft | 367 kts | 287° |
| 2026-04-23 06:15 | 30.38029 | 112.05691 | 23585 ft | 367 kts | 287° |
| 2026-04-23 06:15 | 30.38861 | 112.02899 | 23583 ft | 367 kts | 287° |
| 2026-04-23 06:15 | 30.39687 | 112.00124 | 23585 ft | 367 kts | 287° |
| 2026-04-23 06:16 | 30.40521 | 111.97318 | 23582 ft | 367 kts | 287° |
| 2026-04-23 06:16 | 30.41351 | 111.94527 | 23587 ft | 367 kts | 287° |
| 2026-04-23 06:16 | 30.42182 | 111.91728 | 23583 ft | 367 kts | 287° |
| 2026-04-23 06:16 | 30.43011 | 111.88933 | 23584 ft | 367 kts | 287° |
| 2026-04-23 06:17 | 30.43839 | 111.86139 | 23588 ft | 367 kts | 287° |
| 2026-04-23 06:17 | 30.44666 | 111.83343 | 23578 ft | 367 kts | 287° |
| 2026-04-23 06:17 | 30.45494 | 111.80546 | 23576 ft | 367 kts | 287° |
| 2026-04-23 06:17 | 30.46321 | 111.77748 | 23580 ft | 367 kts | 287° |
| 2026-04-23 06:18 | 30.47146 | 111.74955 | 23582 ft | 367 kts | 287° |
| 2026-04-23 06:18 | 30.47855 | 111.72116 | 23584 ft | 366 kts | 281° |
| 2026-04-23 06:18 | 30.48218 | 111.69197 | 23588 ft | 366 kts | 275° |
| 2026-04-23 06:18 | 30.48214 | 111.66253 | 23585 ft | 366 kts | 268° |
| 2026-04-23 06:19 | 30.48043 | 111.63308 | 23582 ft | 366 kts | 267° |
| 2026-04-23 06:19 | 30.47865 | 111.60398 | 23584 ft | 366 kts | 267° |
| 2026-04-23 06:19 | 30.47691 | 111.57451 | 23576 ft | 366 kts | 267° |
| 2026-04-23 06:19 | 30.47527 | 111.54504 | 23575 ft | 366 kts | 268° |
| 2026-04-23 06:20 | 30.47365 | 111.51555 | 23577 ft | 366 kts | 268° |
| 2026-04-23 06:20 | 30.47196 | 111.48610 | 23577 ft | 367 kts | 266° |
| 2026-04-23 06:20 | 30.46849 | 111.45682 | 23586 ft | 367 kts | 262° |
| 2026-04-23 06:20 | 30.46421 | 111.42757 | 23572 ft | 368 kts | 262° |
| 2026-04-23 06:21 | 30.45991 | 111.39835 | 23576 ft | 368 kts | 262° |
| 2026-04-23 06:21 | 30.45570 | 111.36908 | 23567 ft | 368 kts | 262° |
| 2026-04-23 06:21 | 30.45158 | 111.33987 | 23589 ft | 367 kts | 263° |
| 2026-04-23 06:21 | 30.44751 | 111.31059 | 23566 ft | 367 kts | 263° |
| 2026-04-23 06:22 | 30.44346 | 111.28133 | 23577 ft | 367 kts | 263° |
| 2026-04-23 06:22 | 30.43943 | 111.25215 | 23572 ft | 367 kts | 263° |
| 2026-04-23 06:22 | 30.43538 | 111.22289 | 23572 ft | 367 kts | 263° |
| 2026-04-23 06:22 | 30.43133 | 111.19366 | 23584 ft | 367 kts | 263° |
| 2026-04-23 06:23 | 30.42728 | 111.16449 | 23573 ft | 367 kts | 263° |
| 2026-04-23 06:23 | 30.42321 | 111.13531 | 23573 ft | 367 kts | 263° |
| 2026-04-23 06:23 | 30.41919 | 111.10655 | 23591 ft | 367 kts | 263° |
| 2026-04-23 06:23 | 30.41505 | 111.07701 | 23579 ft | 366 kts | 263° |
| 2026-04-23 06:24 | 30.41101 | 111.04823 | 23576 ft | 367 kts | 263° |
| 2026-04-23 06:24 | 30.40691 | 111.01904 | 23577 ft | 367 kts | 263° |
| 2026-04-23 06:24 | 30.40279 | 110.98978 | 23585 ft | 368 kts | 263° |
| 2026-04-23 06:24 | 30.39868 | 110.96055 | 23565 ft | 367 kts | 263° |
| 2026-04-23 06:25 | 30.39458 | 110.93144 | 23568 ft | 367 kts | 263° |
| 2026-04-23 06:25 | 30.39045 | 110.90219 | 23573 ft | 367 kts | 262° |
| 2026-04-23 06:25 | 30.38633 | 110.87306 | 23576 ft | 366 kts | 262° |
| 2026-04-23 06:25 | 30.38219 | 110.84394 | 23573 ft | 367 kts | 263° |
| 2026-04-23 06:26 | 30.37805 | 110.81481 | 23562 ft | 367 kts | 263° |
| 2026-04-23 06:26 | 30.37390 | 110.78570 | 23562 ft | 367 kts | 262° |
| 2026-04-23 06:26 | 30.36975 | 110.75658 | 23559 ft | 366 kts | 262° |
| 2026-04-23 06:26 | 30.36561 | 110.72756 | 23576 ft | 365 kts | 262° |
| 2026-04-23 06:27 | 30.36145 | 110.69856 | 23578 ft | 365 kts | 262° |
| 2026-04-23 06:27 | 30.35727 | 110.66945 | 23556 ft | 368 kts | 263° |
| 2026-04-23 06:27 | 30.35308 | 110.64021 | 23568 ft | 368 kts | 262° |
| 2026-04-23 06:27 | 30.34889 | 110.61098 | 23557 ft | 368 kts | 262° |
| 2026-04-23 06:28 | 30.34470 | 110.58183 | 23555 ft | 365 kts | 262° |
| 2026-04-23 06:28 | 30.34053 | 110.55289 | 23568 ft | 365 kts | 262° |
| 2026-04-23 06:28 | 30.33634 | 110.52389 | 23577 ft | 365 kts | 262° |
| 2026-04-23 06:28 | 30.33214 | 110.49484 | 23568 ft | 366 kts | 262° |
| 2026-04-23 06:29 | 30.32787 | 110.46570 | 23538 ft | 367 kts | 262° |
| 2026-04-23 06:29 | 30.32371 | 110.43701 | 23551 ft | 365 kts | 262° |
| 2026-04-23 06:29 | 30.31952 | 110.40800 | 23574 ft | 366 kts | 262° |
| 2026-04-23 06:29 | 30.31531 | 110.37892 | 23568 ft | 366 kts | 262° |
| 2026-04-23 06:30 | 30.31108 | 110.34984 | 23574 ft | 367 kts | 262° |
| 2026-04-23 06:30 | 30.30683 | 110.32066 | 23561 ft | 367 kts | 262° |
| 2026-04-23 06:30 | 30.30258 | 110.29160 | 23576 ft | 367 kts | 262° |
| 2026-04-23 06:30 | 30.29832 | 110.26255 | 23559 ft | 367 kts | 262° |
| 2026-04-23 06:31 | 30.29403 | 110.23337 | 23559 ft | 367 kts | 262° |
| 2026-04-23 06:31 | 30.28975 | 110.20427 | 23577 ft | 366 kts | 262° |
| 2026-04-23 06:31 | 30.28548 | 110.17537 | 23499 ft | 364 kts | 262° |
| 2026-04-23 06:31 | 30.28138 | 110.14664 | 23526 ft | 363 kts | 262° |
| 2026-04-23 06:32 | 30.27711 | 110.11776 | 23536 ft | 364 kts | 262° |
| 2026-04-23 06:32 | 30.27279 | 110.08889 | 23565 ft | 364 kts | 262° |
| 2026-04-23 06:32 | 30.26847 | 110.05996 | 23571 ft | 366 kts | 262° |
| 2026-04-23 06:32 | 30.26414 | 110.03097 | 23564 ft | 367 kts | 262° |
| 2026-04-23 06:33 | 30.25981 | 110.00188 | 23573 ft | 366 kts | 262° |
| 2026-04-23 06:33 | 30.25548 | 109.97277 | 23564 ft | 367 kts | 262° |
| 2026-04-23 06:33 | 30.25115 | 109.94379 | 23587 ft | 364 kts | 263° |
| 2026-04-23 06:33 | 30.24688 | 109.91487 | 23575 ft | 366 kts | 262° |
| 2026-04-23 06:34 | 30.24253 | 109.88581 | 23570 ft | 367 kts | 262° |
| 2026-04-23 06:34 | 30.23815 | 109.85668 | 23566 ft | 368 kts | 262° |
| 2026-04-23 06:34 | 30.23381 | 109.82783 | 23506 ft | 368 kts | 263° |
| 2026-04-23 06:34 | 30.22943 | 109.79890 | 23587 ft | 365 kts | 262° |
| 2026-04-23 06:35 | 30.22496 | 109.76990 | 23570 ft | 366 kts | 262° |
| 2026-04-23 06:35 | 30.22042 | 109.74083 | 23567 ft | 368 kts | 262° |
| 2026-04-23 06:35 | 30.21586 | 109.71174 | 23556 ft | 369 kts | 262° |
| 2026-04-23 06:35 | 30.21129 | 109.68253 | 23559 ft | 369 kts | 262° |
| 2026-04-23 06:36 | 30.20672 | 109.65329 | 23561 ft | 369 kts | 262° |
| 2026-04-23 06:36 | 30.20214 | 109.62414 | 23588 ft | 367 kts | 262° |
| 2026-04-23 06:36 | 30.19700 | 109.59517 | 23540 ft | 369 kts | 258° |
| 2026-04-23 06:36 | 30.18978 | 109.56674 | 23566 ft | 368 kts | 256° |
| 2026-04-23 06:37 | 30.18224 | 109.53846 | 23556 ft | 368 kts | 256° |
| 2026-04-23 06:37 | 30.17470 | 109.51015 | 23540 ft | 370 kts | 256° |
| 2026-04-23 06:37 | 30.16721 | 109.48171 | 23553 ft | 369 kts | 256° |
| 2026-04-23 06:37 | 30.15979 | 109.45331 | 23549 ft | 369 kts | 256° |
| 2026-04-23 06:38 | 30.15236 | 109.42490 | 23562 ft | 369 kts | 256° |
| 2026-04-23 06:38 | 30.14487 | 109.39653 | 23551 ft | 370 kts | 256° |
| 2026-04-23 06:38 | 30.13729 | 109.36800 | 23553 ft | 371 kts | 256° |
| 2026-04-23 06:38 | 30.12972 | 109.33958 | 23543 ft | 371 kts | 256° |
| 2026-04-23 06:39 | 30.12217 | 109.31116 | 23574 ft | 367 kts | 256° |
| 2026-04-23 06:39 | 30.11468 | 109.28291 | 23527 ft | 369 kts | 256° |
| 2026-04-23 06:39 | 30.10719 | 109.25467 | 23547 ft | 369 kts | 256° |
| 2026-04-23 06:39 | 30.09957 | 109.22627 | 23554 ft | 370 kts | 256° |
| 2026-04-23 06:40 | 30.09192 | 109.19783 | 23560 ft | 371 kts | 256° |
| 2026-04-23 06:40 | 30.08419 | 109.16937 | 23558 ft | 372 kts | 256° |
| 2026-04-23 06:40 | 30.07641 | 109.14083 | 23539 ft | 373 kts | 255° |
| 2026-04-23 06:40 | 30.06864 | 109.11234 | 23550 ft | 372 kts | 256° |
| 2026-04-23 06:41 | 30.06085 | 109.08379 | 23541 ft | 372 kts | 256° |
| 2026-04-23 06:41 | 30.05310 | 109.05533 | 23546 ft | 371 kts | 256° |
| 2026-04-23 06:41 | 30.04536 | 109.02694 | 23543 ft | 370 kts | 255° |
| 2026-04-23 06:41 | 30.03762 | 108.99859 | 23547 ft | 370 kts | 256° |
| 2026-04-23 06:42 | 30.02999 | 108.97067 | 23542 ft | 369 kts | 256° |
| 2026-04-23 06:42 | 30.02484 | 108.95161 | 23552 ft | 369 kts | 256° |
| 2026-04-23 06:42 | 30.01486 | 108.91368 | 23543 ft | 370 kts | 256° |
| 2026-04-23 06:42 | 30.00996 | 108.89490 | 23530 ft | 369 kts | 256° |
| 2026-04-23 06:43 | 30.00006 | 108.85699 | 23545 ft | 369 kts | 256° |
| 2026-04-23 06:43 | 29.99514 | 108.83822 | 23554 ft | 368 kts | 256° |
| 2026-04-23 06:43 | 29.98529 | 108.80075 | 23551 ft | 369 kts | 256° |
| 2026-04-23 06:43 | 29.98027 | 108.78167 | 23547 ft | 369 kts | 256° |
| 2026-04-23 06:44 | 29.97040 | 108.74426 | 23551 ft | 369 kts | 256° |
| 2026-04-23 06:44 | 29.96292 | 108.71592 | 23546 ft | 368 kts | 256° |
| 2026-04-23 06:44 | 29.95544 | 108.68767 | 23547 ft | 369 kts | 256° |
| 2026-04-23 06:44 | 29.95037 | 108.66856 | 23542 ft | 369 kts | 256° |
| 2026-04-23 06:45 | 29.94289 | 108.64038 | 23549 ft | 368 kts | 256° |
| 2026-04-23 06:45 | 29.93538 | 108.61208 | 23545 ft | 369 kts | 256° |
| 2026-04-23 06:45 | 29.92798 | 108.58420 | 23541 ft | 369 kts | 256° |
| 2026-04-23 06:45 | 29.92038 | 108.55560 | 23543 ft | 369 kts | 256° |
| 2026-04-23 06:46 | 29.91295 | 108.52766 | 23551 ft | 369 kts | 256° |
| 2026-04-23 06:46 | 29.90541 | 108.49931 | 23544 ft | 369 kts | 256° |
| 2026-04-23 06:46 | 29.89786 | 108.47103 | 23539 ft | 369 kts | 256° |
| 2026-04-23 06:46 | 29.89033 | 108.44279 | 23549 ft | 367 kts | 256° |
| 2026-04-23 06:47 | 29.88280 | 108.41459 | 23542 ft | 368 kts | 256° |
| 2026-04-23 06:47 | 29.87528 | 108.38644 | 23551 ft | 369 kts | 256° |
| 2026-04-23 06:47 | 29.86773 | 108.35815 | 23553 ft | 370 kts | 256° |
| 2026-04-23 06:47 | 29.86014 | 108.32975 | 23546 ft | 371 kts | 256° |
| 2026-04-23 06:48 | 29.85257 | 108.30145 | 23550 ft | 370 kts | 256° |
| 2026-04-23 06:48 | 29.84498 | 108.27311 | 23547 ft | 370 kts | 256° |
| 2026-04-23 06:48 | 29.83742 | 108.24490 | 23538 ft | 367 kts | 256° |
| 2026-04-23 06:48 | 29.82987 | 108.21677 | 23544 ft | 370 kts | 256° |
| 2026-04-23 06:49 | 29.82224 | 108.18834 | 23543 ft | 371 kts | 256° |
| 2026-04-23 06:49 | 29.81470 | 108.16024 | 23551 ft | 373 kts | 256° |
| 2026-04-23 06:49 | 29.80703 | 108.13172 | 23545 ft | 374 kts | 256° |
| 2026-04-23 06:49 | 29.79933 | 108.10314 | 23536 ft | 372 kts | 256° |
| 2026-04-23 06:50 | 29.79167 | 108.07478 | 23545 ft | 372 kts | 256° |
| 2026-04-23 06:50 | 29.78401 | 108.04635 | 23551 ft | 370 kts | 256° |
| 2026-04-23 06:50 | 29.77639 | 108.01807 | 23543 ft | 369 kts | 256° |
| 2026-04-23 06:50 | 29.76878 | 107.98989 | 23553 ft | 369 kts | 256° |
| 2026-04-23 06:51 | 29.76116 | 107.96177 | 23516 ft | 365 kts | 256° |
| 2026-04-23 06:51 | 29.75448 | 107.93441 | 23538 ft | 353 kts | 261° |
| 2026-04-23 06:51 | 29.75125 | 107.90659 | 23540 ft | 346 kts | 268° |
| 2026-04-23 06:51 | 29.74957 | 107.87907 | 23569 ft | 344 kts | 268° |
| 2026-04-23 06:52 | 29.74806 | 107.85132 | 23471 ft | 350 kts | 268° |
| 2026-04-23 06:52 | 29.74653 | 107.82330 | 23142 ft | 349 kts | 268° |
| 2026-04-23 06:52 | 29.74496 | 107.79554 | 22712 ft | 345 kts | 268° |
| 2026-04-23 06:52 | 29.74334 | 107.76815 | 22274 ft | 340 kts | 268° |
| 2026-04-23 06:53 | 29.74171 | 107.74114 | 21830 ft | 337 kts | 268° |
| 2026-04-23 06:53 | 29.74008 | 107.71434 | 21382 ft | 336 kts | 268° |
| 2026-04-23 06:53 | 29.73845 | 107.68767 | 20940 ft | 333 kts | 268° |
| 2026-04-23 06:53 | 29.73681 | 107.66113 | 20509 ft | 331 kts | 268° |
| 2026-04-23 06:54 | 29.73519 | 107.63480 | 20074 ft | 329 kts | 268° |
| 2026-04-23 06:54 | 29.73356 | 107.60865 | 19671 ft | 327 kts | 268° |
| 2026-04-23 06:54 | 29.73192 | 107.58255 | 19246 ft | 326 kts | 268° |
| 2026-04-23 06:54 | 29.73029 | 107.55654 | 18824 ft | 325 kts | 268° |
| 2026-04-23 06:55 | 29.72866 | 107.53065 | 18406 ft | 325 kts | 268° |
| 2026-04-23 06:55 | 29.72702 | 107.50467 | 17935 ft | 325 kts | 268° |
| 2026-04-23 06:55 | 29.72539 | 107.47882 | 17500 ft | 324 kts | 268° |
| 2026-04-23 06:55 | 29.72375 | 107.45302 | 17072 ft | 323 kts | 268° |
| 2026-04-23 06:56 | 29.72212 | 107.42734 | 16647 ft | 322 kts | 268° |
| 2026-04-23 06:56 | 29.72051 | 107.40202 | 16235 ft | 320 kts | 268° |
| 2026-04-23 06:56 | 29.71888 | 107.37652 | 15822 ft | 319 kts | 268° |
| 2026-04-23 06:56 | 29.71725 | 107.35109 | 15431 ft | 318 kts | 268° |
| 2026-04-23 06:57 | 29.71563 | 107.32580 | 15033 ft | 317 kts | 268° |
| 2026-04-23 06:57 | 29.71400 | 107.30056 | 14623 ft | 316 kts | 268° |
| 2026-04-23 06:57 | 29.71237 | 107.27537 | 14236 ft | 316 kts | 268° |
| 2026-04-23 06:57 | 29.71074 | 107.25025 | 13837 ft | 315 kts | 268° |
| 2026-04-23 06:58 | 29.70911 | 107.22516 | 13422 ft | 315 kts | 268° |
| 2026-04-23 06:58 | 29.70746 | 107.19998 | 12985 ft | 314 kts | 268° |
| 2026-04-23 06:58 | 29.70583 | 107.17484 | 12573 ft | 314 kts | 267° |
| 2026-04-23 06:58 | 29.70418 | 107.14987 | 12173 ft | 313 kts | 268° |
| 2026-04-23 06:59 | 29.70255 | 107.12497 | 11790 ft | 311 kts | 267° |
| 2026-04-23 06:59 | 29.70090 | 107.10016 | 11386 ft | 311 kts | 267° |
| 2026-04-23 06:59 | 29.69926 | 107.07546 | 11006 ft | 310 kts | 267° |
| 2026-04-23 06:59 | 29.69763 | 107.05106 | 10623 ft | 309 kts | 267° |
| 2026-04-23 07:00 | 29.69599 | 107.02627 | 10405 ft | 303 kts | 267° |
| 2026-04-23 07:00 | 29.69442 | 107.00274 | 10262 ft | 295 kts | 267° |
| 2026-04-23 07:00 | 29.69287 | 106.97946 | 10121 ft | 288 kts | 267° |
| 2026-04-23 07:00 | 29.69136 | 106.95697 | 9997 ft | 281 kts | 267° |
| 2026-04-23 07:01 | 29.68986 | 106.93464 | 9776 ft | 278 kts | 267° |
| 2026-04-23 07:01 | 29.68836 | 106.91252 | 9549 ft | 274 kts | 267° |
| 2026-04-23 07:01 | 29.68692 | 106.89129 | 9438 ft | 266 kts | 268° |
| 2026-04-23 07:01 | 29.68830 | 106.87038 | 9195 ft | 262 kts | 287° |
| 2026-04-23 07:02 | 29.69379 | 106.85055 | 8974 ft | 259 kts | 289° |
| 2026-04-23 07:02 | 29.69922 | 106.83085 | 8718 ft | 258 kts | 288° |
| 2026-04-23 07:02 | 29.70336 | 106.81078 | 8439 ft | 260 kts | 272° |
| 2026-04-23 07:02 | 29.69962 | 106.79061 | 8176 ft | 261 kts | 243° |
| 2026-04-23 07:03 | 29.68770 | 106.77522 | 7942 ft | 260 kts | 213° |
| 2026-04-23 07:03 | 29.67130 | 106.76672 | 7709 ft | 259 kts | 198° |
| 2026-04-23 07:03 | 29.65402 | 106.76089 | 7438 ft | 259 kts | 195° |
| 2026-04-23 07:03 | 29.63659 | 106.75525 | 7184 ft | 260 kts | 195° |
| 2026-04-23 07:04 | 29.61930 | 106.74952 | 7030 ft | 256 kts | 195° |
| 2026-04-23 07:04 | 29.60240 | 106.74385 | 6912 ft | 250 kts | 196° |
| 2026-04-23 07:04 | 29.58599 | 106.73824 | 6829 ft | 242 kts | 196° |
| 2026-04-23 07:04 | 29.57003 | 106.73273 | 6729 ft | 237 kts | 196° |
| 2026-04-23 07:05 | 29.55442 | 106.72733 | 6568 ft | 233 kts | 196° |
| 2026-04-23 07:05 | 29.54030 | 106.71853 | 6332 ft | 234 kts | 226° |
| 2026-04-23 07:05 | 29.53261 | 106.70241 | 6067 ft | 234 kts | 259° |
| 2026-04-23 07:05 | 29.53245 | 106.68391 | 5847 ft | 232 kts | 277° |
| 2026-04-23 07:06 | 29.53477 | 106.66549 | 5604 ft | 233 kts | 279° |
| 2026-04-23 07:06 | 29.53726 | 106.64746 | 5360 ft | 224 kts | 279° |
| 2026-04-23 07:06 | 29.54143 | 106.63075 | 5089 ft | 213 kts | 302° |
| 2026-04-23 07:06 | 29.55158 | 106.61955 | 4984 ft | 193 kts | 333° |
| 2026-04-23 07:07 | 29.56365 | 106.61557 | 4991 ft | 172 kts | 358° |
| 2026-04-23 07:07 | 29.57484 | 106.61725 | 5019 ft | 159 kts | 16° |
| 2026-04-23 07:07 | 29.58544 | 106.62056 | 4981 ft | 159 kts | 17° |
| 2026-04-23 07:07 | 29.59658 | 106.62431 | 4342 ft | 171 kts | 17° |
| 2026-04-23 07:08 | 29.60802 | 106.62828 | 3748 ft | 173 kts | 18° |
| 2026-04-23 07:08 | 29.61920 | 106.63217 | 3446 ft | 159 kts | 17° |
| 2026-04-23 07:08 | 29.62925 | 106.63576 | 3205 ft | 147 kts | 18° |
| 2026-04-23 07:08 | 29.63911 | 106.63917 | 3049 ft | 153 kts | 17° |
| 2026-04-23 07:09 | 29.64930 | 106.64274 | 2830 ft | 152 kts | 18° |
| 2026-04-23 07:09 | 29.65941 | 106.64631 | 2608 ft | 151 kts | 18° |
| 2026-04-23 07:09 | 29.66945 | 106.64981 | 2432 ft | 151 kts | 18° |
| 2026-04-23 07:09 | 29.67955 | 106.65337 | 2222 ft | 149 kts | 17° |
| 2026-04-23 07:10 | 29.68950 | 106.65687 | 2008 ft | 149 kts | 18° |
| 2026-04-23 07:10 | 29.69322 | 106.65817 | 1926 ft | 148 kts | 18° |
| 2026-04-23 07:11 | 29.69946 | 106.66035 | 1816 ft | 146 kts | 18° |
| 2026-04-23 07:11 | 29.70930 | 106.66392 | 1637 ft | 151 kts | 18° |
| 2026-04-23 07:12 | 29.72873 | 106.67062 | 1333 ft | 119 kts | 18° |
| 2026-04-23 07:12 | 29.73459 | 106.67265 | 1329 ft | 59 kts | 16° |
| 2026-04-23 07:12 | 29.73781 | 106.67374 | 1327 ft | 35 kts | 9° |
| 2026-04-23 07:12 | 29.73945 | 106.67382 | 1324 ft | 17 kts | 355° |
| 2026-04-23 07:13 | 29.73974 | 106.67380 | 1323 ft | 2 kts | 356° |
| 2026-04-23 07:13 | 29.74006 | 106.67369 | 1324 ft | 8 kts | 348° |
| 2026-04-23 07:13 | 29.74068 | 106.67356 | 1321 ft | 8 kts | 349° |
| 2026-04-23 07:13 | 29.74099 | 106.67319 | 1320 ft | 6 kts | 283° |
| 2026-04-23 07:14 | 29.74083 | 106.67274 | 1320 ft | 6 kts | 224° |
| 2026-04-23 07:14 | 29.74042 | 106.67256 | 1319 ft | 6 kts | 196° |
| 2026-04-23 07:14 | 29.74000 | 106.67241 | 1320 ft | 6 kts | 204° |
| 2026-04-23 07:14 | 29.73977 | 106.67202 | 1322 ft | 6 kts | 263° |
| 2026-04-23 07:15 | 29.73988 | 106.67149 | 1318 ft | 7 kts | 288° |
| 2026-04-23 07:15 | 29.74004 | 106.67091 | 1317 ft | 8 kts | 288° |
| 2026-04-23 07:15 | 29.74019 | 106.67031 | 1317 ft | 8 kts | 285° |
| 2026-04-23 07:15 | 29.74035 | 106.66971 | 1316 ft | 8 kts | 287° |
| 2026-04-23 07:16 | 29.74050 | 106.66913 | 1317 ft | 7 kts | 287° |
| 2026-04-23 07:16 | 29.74065 | 106.66857 | 1317 ft | 7 kts | 287° |
| 2026-04-23 07:16 | 29.74079 | 106.66803 | 1318 ft | 7 kts | 288° |
| 2026-04-23 07:16 | 29.74070 | 106.66753 | 1319 ft | 6 kts | 227° |
| 2026-04-23 07:17 | 29.74028 | 106.66731 | 1319 ft | 7 kts | 196° |
| 2026-04-23 07:17 | 29.73973 | 106.66712 | 1319 ft | 9 kts | 197° |
| 2026-04-23 07:17 | 29.73903 | 106.66688 | 1322 ft | 11 kts | 197° |
| 2026-04-23 07:17 | 29.73820 | 106.66660 | 1321 ft | 14 kts | 196° |
| 2026-04-23 07:18 | 29.73717 | 106.66624 | 1324 ft | 17 kts | 197° |
| 2026-04-23 07:18 | 29.73589 | 106.66581 | 1323 ft | 21 kts | 197° |
| 2026-04-23 07:18 | 29.73437 | 106.66530 | 1326 ft | 24 kts | 197° |
| 2026-04-23 07:18 | 29.73280 | 106.66474 | 1325 ft | 23 kts | 195° |
| 2026-04-23 07:19 | 29.73129 | 106.66423 | 1326 ft | 22 kts | 197° |
| 2026-04-23 07:19 | 29.72983 | 106.66371 | 1328 ft | 22 kts | 197° |
| 2026-04-23 07:19 | 29.72841 | 106.66322 | 1329 ft | 21 kts | 197° |
| 2026-04-23 07:19 | 29.72704 | 106.66275 | 1330 ft | 20 kts | 197° |
| 2026-04-23 07:20 | 29.72571 | 106.66231 | 1331 ft | 20 kts | 196° |
| 2026-04-23 07:20 | 29.72441 | 106.66186 | 1332 ft | 19 kts | 196° |
| 2026-04-23 07:20 | 29.72316 | 106.66142 | 1333 ft | 19 kts | 197° |
| 2026-04-23 07:20 | 29.72195 | 106.66098 | 1334 ft | 18 kts | 198° |
| 2026-04-23 07:21 | 29.72079 | 106.66056 | 1339 ft | 17 kts | 197° |
| 2026-04-23 07:21 | 29.71966 | 106.66016 | 1335 ft | 17 kts | 197° |
| 2026-04-23 07:21 | 29.71865 | 106.65979 | 1336 ft | 11 kts | 201° |
| 2026-04-23 07:21 | 29.71838 | 106.65926 | 1336 ft | 7 kts | 272° |
| 2026-04-23 07:22 | 29.71851 | 106.65873 | 1342 ft | 7 kts | 286° |
| 2026-04-23 07:22 | 29.71865 | 106.65820 | 1338 ft | 7 kts | 287° |
| 2026-04-23 07:22 | 29.71881 | 106.65760 | 1340 ft | 9 kts | 287° |
| 2026-04-23 07:22 | 29.71903 | 106.65677 | 1341 ft | 13 kts | 287° |
| 2026-04-23 07:23 | 29.71925 | 106.65583 | 1343 ft | 9 kts | 272° |
| 2026-04-23 07:23 | 29.71908 | 106.65550 | 1347 ft | 4 kts | 211° |
| 2026-04-23 07:23 | 29.71881 | 106.65540 | 1344 ft | 5 kts | 198° |
| 2026-04-23 07:23 | 29.71833 | 106.65522 | 1345 ft | 10 kts | 198° |
| 2026-04-23 07:24 | 29.71761 | 106.65494 | 1345 ft | 11 kts | 197° |
| 2026-04-23 07:24 | 29.71691 | 106.65467 | 1346 ft | 11 kts | 199° |
| 2026-04-23 07:24 | 29.71628 | 106.65427 | 1349 ft | 10 kts | 221° |
| 2026-04-23 07:24 | 29.71592 | 106.65399 | 1346 ft | 5 kts | 188° |
| 2026-04-23 07:25 | 29.71562 | 106.65412 | 1347 ft | 5 kts | 144° |
| 2026-04-23 07:25 | 29.71544 | 106.65428 | 1347 ft | 3 kts | 142° |
| 2026-04-23 07:25 | 29.71536 | 106.65435 | 1347 ft | 0 kts | 141° |